sensor_id;sensor_type;location;lat;lon;timestamp;temperature;humidity
33699;DHT22;20032;52.436;13.312;2023-07-28T00:01:25;17.10;99.90
33699;DHT22;20032;52.436;13.312;2023-07-28T00:03:50;17.10;99.90
33699;DHT22;20032;52.436;13.312;2023-07-28T00:06:16;17.10;99.90
33699;DHT22;20032;52.436;13.312;2023-07-28T00:08:42;17.10;99.90
33699;DHT22;20032;52.436;13.312;2023-07-28T00:11:11;17.10;99.90
33699;DHT22;20032;52.436;13.312;2023-07-28T00:13:38;17.10;99.90
33699;DHT22;20032;52.436;13.312;2023-07-28T00:16:04;17.10;99.90
33699;DHT22;20032;52.436;13.312;2023-07-28T00:18:29;17.20;99.90
33699;DHT22;20032;52.436;13.312;2023-07-28T00:20:55;17.20;99.90
33699;DHT22;20032;52.436;13.312;2023-07-28T00:23:20;17.20;99.90
33699;DHT22;20032;52.436;13.312;2023-07-28T00:25:46;17.20;99.90
33699;DHT22;20032;52.436;13.312;2023-07-28T00:28:11;17.20;99.90
33699;DHT22;20032;52.436;13.312;2023-07-28T00:30:37;17.20;99.90
33699;DHT22;20032;52.436;13.312;2023-07-28T00:33:02;17.20;99.90
33699;DHT22;20032;52.436;13.312;2023-07-28T00:35:28;17.20;99.90
33699;DHT22;20032;52.436;13.312;2023-07-28T00:37:53;17.20;99.90
33699;DHT22;20032;52.436;13.312;2023-07-28T00:40:19;17.20;99.90
33699;DHT22;20032;52.436;13.312;2023-07-28T00:42:45;17.20;99.90
33699;DHT22;20032;52.436;13.312;2023-07-28T00:45:10;17.20;99.90
33699;DHT22;20032;52.436;13.312;2023-07-28T00:47:36;17.20;99.90
33699;DHT22;20032;52.436;13.312;2023-07-28T00:50:03;17.20;99.90
33699;DHT22;20032;52.436;13.312;2023-07-28T00:52:28;17.20;99.90
33699;DHT22;20032;52.436;13.312;2023-07-28T00:54:54;17.30;99.90
33699;DHT22;20032;52.436;13.312;2023-07-28T00:57:20;17.30;99.90
33699;DHT22;20032;52.436;13.312;2023-07-28T00:59:46;17.30;99.90
33699;DHT22;20032;52.436;13.312;2023-07-28T01:02:12;17.30;99.90
33699;DHT22;20032;52.436;13.312;2023-07-28T01:04:38;17.30;99.90
33699;DHT22;20032;52.436;13.312;2023-07-28T01:07:09;17.40;99.90
33699;DHT22;20032;52.436;13.312;2023-07-28T01:09:43;17.40;99.90
33699;DHT22;20032;52.436;13.312;2023-07-28T01:12:10;17.40;99.90
33699;DHT22;20032;52.436;13.312;2023-07-28T01:14:35;17.30;99.90
33699;DHT22;20032;52.436;13.312;2023-07-28T01:17:01;17.30;99.90
33699;DHT22;20032;52.436;13.312;2023-07-28T01:19:27;17.40;99.90
33699;DHT22;20032;52.436;13.312;2023-07-28T01:22:09;17.40;99.90
33699;DHT22;20032;52.436;13.312;2023-07-28T01:24:49;17.40;99.90
33699;DHT22;20032;52.436;13.312;2023-07-28T01:27:16;17.40;99.90
33699;DHT22;20032;52.436;13.312;2023-07-28T01:29:42;17.40;99.90
33699;DHT22;20032;52.436;13.312;2023-07-28T01:32:11;17.40;99.90
33699;DHT22;20032;52.436;13.312;2023-07-28T01:34:36;17.40;99.90
33699;DHT22;20032;52.436;13.312;2023-07-28T01:37:02;17.40;99.90
33699;DHT22;20032;52.436;13.312;2023-07-28T01:39:27;17.40;99.90
33699;DHT22;20032;52.436;13.312;2023-07-28T01:41:53;17.40;99.90
33699;DHT22;20032;52.436;13.312;2023-07-28T01:44:18;17.40;99.90
33699;DHT22;20032;52.436;13.312;2023-07-28T01:46:44;17.40;99.90
33699;DHT22;20032;52.436;13.312;2023-07-28T01:49:09;17.40;99.90
33699;DHT22;20032;52.436;13.312;2023-07-28T01:51:35;17.40;99.90
33699;DHT22;20032;52.436;13.312;2023-07-28T01:54:00;17.40;99.90
33699;DHT22;20032;52.436;13.312;2023-07-28T01:56:26;17.40;99.90
33699;DHT22;20032;52.436;13.312;2023-07-28T01:58:52;17.40;99.90
33699;DHT22;20032;52.436;13.312;2023-07-28T02:01:18;17.50;99.90
33699;DHT22;20032;52.436;13.312;2023-07-28T02:03:43;17.40;99.90
33699;DHT22;20032;52.436;13.312;2023-07-28T02:06:09;17.50;99.90
33699;DHT22;20032;52.436;13.312;2023-07-28T02:08:34;17.50;99.90
33699;DHT22;20032;52.436;13.312;2023-07-28T02:11:00;17.50;99.90
33699;DHT22;20032;52.436;13.312;2023-07-28T02:13:25;17.50;99.90
33699;DHT22;20032;52.436;13.312;2023-07-28T02:15:51;17.50;99.90
33699;DHT22;20032;52.436;13.312;2023-07-28T02:18:16;17.50;99.90
33699;DHT22;20032;52.436;13.312;2023-07-28T02:20:42;17.50;99.90
33699;DHT22;20032;52.436;13.312;2023-07-28T02:23:07;17.50;99.90
33699;DHT22;20032;52.436;13.312;2023-07-28T02:25:33;17.50;99.90
33699;DHT22;20032;52.436;13.312;2023-07-28T02:27:58;17.50;99.90
33699;DHT22;20032;52.436;13.312;2023-07-28T02:30:23;17.50;99.90
33699;DHT22;20032;52.436;13.312;2023-07-28T02:32:49;17.50;99.90
33699;DHT22;20032;52.436;13.312;2023-07-28T02:35:14;17.50;99.90
33699;DHT22;20032;52.436;13.312;2023-07-28T02:37:40;17.50;99.90
33699;DHT22;20032;52.436;13.312;2023-07-28T02:40:07;17.50;99.90
33699;DHT22;20032;52.436;13.312;2023-07-28T02:42:32;17.50;99.90
33699;DHT22;20032;52.436;13.312;2023-07-28T02:45:00;17.50;99.90
33699;DHT22;20032;52.436;13.312;2023-07-28T02:47:26;17.50;99.90
33699;DHT22;20032;52.436;13.312;2023-07-28T02:49:51;17.50;99.90
33699;DHT22;20032;52.436;13.312;2023-07-28T02:52:17;17.50;99.90
33699;DHT22;20032;52.436;13.312;2023-07-28T02:54:42;17.50;99.90
33699;DHT22;20032;52.436;13.312;2023-07-28T02:57:08;17.50;99.90
33699;DHT22;20032;52.436;13.312;2023-07-28T02:59:33;17.50;99.90
33699;DHT22;20032;52.436;13.312;2023-07-28T03:01:59;17.50;99.90
33699;DHT22;20032;52.436;13.312;2023-07-28T03:04:24;17.50;99.90
33699;DHT22;20032;52.436;13.312;2023-07-28T03:06:50;17.50;99.90
33699;DHT22;20032;52.436;13.312;2023-07-28T03:09:15;17.50;99.90
33699;DHT22;20032;52.436;13.312;2023-07-28T03:11:42;17.50;99.90
33699;DHT22;20032;52.436;13.312;2023-07-28T03:14:08;17.50;99.90
33699;DHT22;20032;52.436;13.312;2023-07-28T03:16:34;17.50;99.90
33699;DHT22;20032;52.436;13.312;2023-07-28T03:19:00;17.50;99.90
33699;DHT22;20032;52.436;13.312;2023-07-28T03:21:25;17.50;99.90
33699;DHT22;20032;52.436;13.312;2023-07-28T03:23:51;17.60;99.90
33699;DHT22;20032;52.436;13.312;2023-07-28T03:26:16;17.50;99.90
33699;DHT22;20032;52.436;13.312;2023-07-28T03:28:42;17.50;99.90
33699;DHT22;20032;52.436;13.312;2023-07-28T03:31:07;17.50;99.90
33699;DHT22;20032;52.436;13.312;2023-07-28T03:33:33;17.50;99.90
33699;DHT22;20032;52.436;13.312;2023-07-28T03:35:58;17.50;99.90
33699;DHT22;20032;52.436;13.312;2023-07-28T03:38:24;17.50;99.90
33699;DHT22;20032;52.436;13.312;2023-07-28T03:40:50;17.50;99.90
33699;DHT22;20032;52.436;13.312;2023-07-28T03:43:15;17.50;99.90
33699;DHT22;20032;52.436;13.312;2023-07-28T03:45:41;17.50;99.90
33699;DHT22;20032;52.436;13.312;2023-07-28T03:48:07;17.50;99.90
33699;DHT22;20032;52.436;13.312;2023-07-28T03:50:32;17.50;99.90
33699;DHT22;20032;52.436;13.312;2023-07-28T03:52:58;17.50;99.90
33699;DHT22;20032;52.436;13.312;2023-07-28T03:55:23;17.50;99.90
33699;DHT22;20032;52.436;13.312;2023-07-28T03:57:49;17.50;99.90
33699;DHT22;20032;52.436;13.312;2023-07-28T04:00:14;17.50;99.90
33699;DHT22;20032;52.436;13.312;2023-07-28T04:02:40;17.60;99.90
33699;DHT22;20032;52.436;13.312;2023-07-28T04:05:05;17.50;99.90
33699;DHT22;20032;52.436;13.312;2023-07-28T04:07:31;17.60;99.90
33699;DHT22;20032;52.436;13.312;2023-07-28T04:09:56;17.60;99.90
33699;DHT22;20032;52.436;13.312;2023-07-28T04:12:22;17.60;99.90
33699;DHT22;20032;52.436;13.312;2023-07-28T04:14:47;17.60;99.90
33699;DHT22;20032;52.436;13.312;2023-07-28T04:17:13;17.60;99.90
33699;DHT22;20032;52.436;13.312;2023-07-28T04:19:38;17.50;99.90
33699;DHT22;20032;52.436;13.312;2023-07-28T04:22:04;17.60;99.90
33699;DHT22;20032;52.436;13.312;2023-07-28T04:24:29;17.60;99.90
33699;DHT22;20032;52.436;13.312;2023-07-28T04:26:55;17.60;99.90
33699;DHT22;20032;52.436;13.312;2023-07-28T04:29:20;17.60;99.90
33699;DHT22;20032;52.436;13.312;2023-07-28T04:31:46;17.70;99.90
33699;DHT22;20032;52.436;13.312;2023-07-28T04:34:11;17.70;99.90
33699;DHT22;20032;52.436;13.312;2023-07-28T04:36:37;17.70;99.90
33699;DHT22;20032;52.436;13.312;2023-07-28T04:39:02;17.70;99.90
33699;DHT22;20032;52.436;13.312;2023-07-28T04:41:28;17.70;99.90
33699;DHT22;20032;52.436;13.312;2023-07-28T04:43:54;17.70;99.90
33699;DHT22;20032;52.436;13.312;2023-07-28T04:46:19;17.70;99.90
33699;DHT22;20032;52.436;13.312;2023-07-28T04:48:46;17.70;99.90
33699;DHT22;20032;52.436;13.312;2023-07-28T04:51:12;17.70;99.90
33699;DHT22;20032;52.436;13.312;2023-07-28T04:53:38;17.70;99.90
33699;DHT22;20032;52.436;13.312;2023-07-28T04:56:03;17.70;99.90
33699;DHT22;20032;52.436;13.312;2023-07-28T04:58:29;17.70;99.90
33699;DHT22;20032;52.436;13.312;2023-07-28T05:00:55;17.70;99.90
33699;DHT22;20032;52.436;13.312;2023-07-28T05:03:20;17.70;99.90
33699;DHT22;20032;52.436;13.312;2023-07-28T05:05:46;17.80;99.90
33699;DHT22;20032;52.436;13.312;2023-07-28T05:08:11;17.70;99.90
33699;DHT22;20032;52.436;13.312;2023-07-28T05:10:37;17.70;99.90
33699;DHT22;20032;52.436;13.312;2023-07-28T05:13:02;17.70;99.90
33699;DHT22;20032;52.436;13.312;2023-07-28T05:15:30;17.80;99.90
33699;DHT22;20032;52.436;13.312;2023-07-28T05:17:55;17.80;99.90
33699;DHT22;20032;52.436;13.312;2023-07-28T05:20:22;17.90;99.90
33699;DHT22;20032;52.436;13.312;2023-07-28T05:22:47;17.90;99.90
33699;DHT22;20032;52.436;13.312;2023-07-28T05:25:13;17.90;99.90
33699;DHT22;20032;52.436;13.312;2023-07-28T05:27:40;17.90;99.90
33699;DHT22;20032;52.436;13.312;2023-07-28T05:30:06;17.90;99.90
33699;DHT22;20032;52.436;13.312;2023-07-28T05:32:32;17.80;99.90
33699;DHT22;20032;52.436;13.312;2023-07-28T05:34:57;17.90;99.90
33699;DHT22;20032;52.436;13.312;2023-07-28T05:37:23;17.90;99.90
33699;DHT22;20032;52.436;13.312;2023-07-28T05:39:49;17.90;99.90
33699;DHT22;20032;52.436;13.312;2023-07-28T05:42:14;17.90;99.90
33699;DHT22;20032;52.436;13.312;2023-07-28T05:44:40;17.90;99.90
33699;DHT22;20032;52.436;13.312;2023-07-28T05:47:06;17.90;99.90
33699;DHT22;20032;52.436;13.312;2023-07-28T05:49:31;17.90;99.90
33699;DHT22;20032;52.436;13.312;2023-07-28T05:51:57;18.00;99.90
33699;DHT22;20032;52.436;13.312;2023-07-28T05:54:23;18.00;99.90
33699;DHT22;20032;52.436;13.312;2023-07-28T05:56:48;18.00;99.90
33699;DHT22;20032;52.436;13.312;2023-07-28T05:59:14;18.00;99.90
33699;DHT22;20032;52.436;13.312;2023-07-28T06:01:39;18.00;99.90
33699;DHT22;20032;52.436;13.312;2023-07-28T06:04:05;18.10;99.90
33699;DHT22;20032;52.436;13.312;2023-07-28T06:06:30;18.10;99.90
33699;DHT22;20032;52.436;13.312;2023-07-28T06:08:56;18.10;99.90
33699;DHT22;20032;52.436;13.312;2023-07-28T06:11:21;18.10;99.90
33699;DHT22;20032;52.436;13.312;2023-07-28T06:13:47;18.10;99.90
33699;DHT22;20032;52.436;13.312;2023-07-28T06:16:14;18.10;99.90
33699;DHT22;20032;52.436;13.312;2023-07-28T06:18:39;18.10;99.90
33699;DHT22;20032;52.436;13.312;2023-07-28T06:21:04;18.20;99.90
33699;DHT22;20032;52.436;13.312;2023-07-28T06:23:30;18.20;99.90
33699;DHT22;20032;52.436;13.312;2023-07-28T06:25:56;18.20;99.90
33699;DHT22;20032;52.436;13.312;2023-07-28T06:28:21;18.20;99.90
33699;DHT22;20032;52.436;13.312;2023-07-28T06:30:47;18.20;99.90
33699;DHT22;20032;52.436;13.312;2023-07-28T06:33:12;18.20;99.90
33699;DHT22;20032;52.436;13.312;2023-07-28T06:35:38;18.20;99.90
33699;DHT22;20032;52.436;13.312;2023-07-28T06:38:04;18.30;99.90
33699;DHT22;20032;52.436;13.312;2023-07-28T06:40:30;18.30;99.90
33699;DHT22;20032;52.436;13.312;2023-07-28T06:42:56;18.30;99.90
33699;DHT22;20032;52.436;13.312;2023-07-28T06:45:21;18.30;99.90
33699;DHT22;20032;52.436;13.312;2023-07-28T06:47:47;18.30;99.90
33699;DHT22;20032;52.436;13.312;2023-07-28T06:50:13;18.30;99.90
33699;DHT22;20032;52.436;13.312;2023-07-28T06:52:38;18.30;99.90
33699;DHT22;20032;52.436;13.312;2023-07-28T06:55:05;18.30;99.90
33699;DHT22;20032;52.436;13.312;2023-07-28T06:57:30;18.40;99.90
33699;DHT22;20032;52.436;13.312;2023-07-28T06:59:56;18.40;99.90
33699;DHT22;20032;52.436;13.312;2023-07-28T07:02:22;18.40;99.90
33699;DHT22;20032;52.436;13.312;2023-07-28T07:04:48;18.50;99.90
33699;DHT22;20032;52.436;13.312;2023-07-28T07:07:13;18.50;99.90
33699;DHT22;20032;52.436;13.312;2023-07-28T07:09:39;18.50;99.90
33699;DHT22;20032;52.436;13.312;2023-07-28T07:12:07;18.60;99.90
33699;DHT22;20032;52.436;13.312;2023-07-28T07:14:33;18.70;99.90
33699;DHT22;20032;52.436;13.312;2023-07-28T07:16:59;18.80;99.90
33699;DHT22;20032;52.436;13.312;2023-07-28T07:19:24;18.80;99.90
33699;DHT22;20032;52.436;13.312;2023-07-28T07:21:50;18.90;99.90
33699;DHT22;20032;52.436;13.312;2023-07-28T07:24:16;18.90;99.90
33699;DHT22;20032;52.436;13.312;2023-07-28T07:26:42;18.90;99.90
33699;DHT22;20032;52.436;13.312;2023-07-28T07:29:08;18.90;99.90
33699;DHT22;20032;52.436;13.312;2023-07-28T07:31:34;19.00;99.90
33699;DHT22;20032;52.436;13.312;2023-07-28T07:34:00;19.10;99.90
33699;DHT22;20032;52.436;13.312;2023-07-28T07:36:26;19.20;99.90
33699;DHT22;20032;52.436;13.312;2023-07-28T07:38:51;19.20;99.90
33699;DHT22;20032;52.436;13.312;2023-07-28T07:41:17;19.30;99.90
33699;DHT22;20032;52.436;13.312;2023-07-28T07:43:46;19.40;99.90
33699;DHT22;20032;52.436;13.312;2023-07-28T07:46:12;19.50;99.90
33699;DHT22;20032;52.436;13.312;2023-07-28T07:48:37;19.50;99.90
33699;DHT22;20032;52.436;13.312;2023-07-28T07:51:03;19.60;99.90
33699;DHT22;20032;52.436;13.312;2023-07-28T07:53:29;19.70;99.90
33699;DHT22;20032;52.436;13.312;2023-07-28T07:55:54;19.70;99.90
33699;DHT22;20032;52.436;13.312;2023-07-28T07:58:20;19.80;99.90
33699;DHT22;20032;52.436;13.312;2023-07-28T08:00:45;19.80;99.90
33699;DHT22;20032;52.436;13.312;2023-07-28T08:03:11;19.80;99.90
33699;DHT22;20032;52.436;13.312;2023-07-28T08:05:36;19.70;99.90
33699;DHT22;20032;52.436;13.312;2023-07-28T08:08:02;19.80;99.90
33699;DHT22;20032;52.436;13.312;2023-07-28T08:10:28;19.80;99.90
33699;DHT22;20032;52.436;13.312;2023-07-28T08:12:55;19.90;99.90
33699;DHT22;20032;52.436;13.312;2023-07-28T08:15:20;20.10;99.90
33699;DHT22;20032;52.436;13.312;2023-07-28T08:17:46;20.20;99.90
33699;DHT22;20032;52.436;13.312;2023-07-28T08:20:11;20.30;99.90
33699;DHT22;20032;52.436;13.312;2023-07-28T08:22:37;20.40;99.90
33699;DHT22;20032;52.436;13.312;2023-07-28T08:25:03;20.30;99.90
33699;DHT22;20032;52.436;13.312;2023-07-28T08:27:29;20.40;99.90
33699;DHT22;20032;52.436;13.312;2023-07-28T08:29:55;20.30;99.90
33699;DHT22;20032;52.436;13.312;2023-07-28T08:32:20;20.30;99.90
33699;DHT22;20032;52.436;13.312;2023-07-28T08:34:47;20.20;99.90
33699;DHT22;20032;52.436;13.312;2023-07-28T08:37:12;20.00;99.90
33699;DHT22;20032;52.436;13.312;2023-07-28T08:39:38;19.90;99.90
33699;DHT22;20032;52.436;13.312;2023-07-28T08:42:04;19.70;99.90
33699;DHT22;20032;52.436;13.312;2023-07-28T08:44:32;19.60;99.90
33699;DHT22;20032;52.436;13.312;2023-07-28T08:47:00;19.60;99.90
33699;DHT22;20032;52.436;13.312;2023-07-28T08:49:25;19.60;99.90
33699;DHT22;20032;52.436;13.312;2023-07-28T08:51:52;19.70;99.90
33699;DHT22;20032;52.436;13.312;2023-07-28T08:54:22;19.70;99.90
33699;DHT22;20032;52.436;13.312;2023-07-28T08:56:48;19.90;99.90
33699;DHT22;20032;52.436;13.312;2023-07-28T08:59:21;20.10;99.90
33699;DHT22;20032;52.436;13.312;2023-07-28T09:01:50;20.20;99.90
33699;DHT22;20032;52.436;13.312;2023-07-28T09:04:15;20.20;99.90
33699;DHT22;20032;52.436;13.312;2023-07-28T09:06:45;20.30;99.90
33699;DHT22;20032;52.436;13.312;2023-07-28T09:09:11;20.40;99.90
33699;DHT22;20032;52.436;13.312;2023-07-28T09:11:45;20.50;99.90
33699;DHT22;20032;52.436;13.312;2023-07-28T09:14:12;20.50;99.90
33699;DHT22;20032;52.436;13.312;2023-07-28T09:16:38;20.50;99.90
33699;DHT22;20032;52.436;13.312;2023-07-28T09:19:05;20.40;99.90
33699;DHT22;20032;52.436;13.312;2023-07-28T09:21:32;20.20;99.90
33699;DHT22;20032;52.436;13.312;2023-07-28T09:24:00;20.10;99.90
33699;DHT22;20032;52.436;13.312;2023-07-28T09:26:44;20.10;99.90
33699;DHT22;20032;52.436;13.312;2023-07-28T09:29:19;20.00;99.90
33699;DHT22;20032;52.436;13.312;2023-07-28T09:31:45;20.00;99.90
33699;DHT22;20032;52.436;13.312;2023-07-28T09:34:11;19.90;99.90
33699;DHT22;20032;52.436;13.312;2023-07-28T09:36:38;20.00;99.90
33699;DHT22;20032;52.436;13.312;2023-07-28T09:39:05;20.00;99.90
33699;DHT22;20032;52.436;13.312;2023-07-28T09:41:36;20.00;99.90
33699;DHT22;20032;52.436;13.312;2023-07-28T09:44:04;20.00;99.90
33699;DHT22;20032;52.436;13.312;2023-07-28T09:46:33;19.90;99.90
33699;DHT22;20032;52.436;13.312;2023-07-28T09:49:02;20.00;99.90
33699;DHT22;20032;52.436;13.312;2023-07-28T09:51:30;20.10;99.90
33699;DHT22;20032;52.436;13.312;2023-07-28T09:54:03;20.10;99.90
33699;DHT22;20032;52.436;13.312;2023-07-28T09:56:30;20.10;99.90
33699;DHT22;20032;52.436;13.312;2023-07-28T09:58:57;20.20;99.90
33699;DHT22;20032;52.436;13.312;2023-07-28T10:01:23;20.20;99.90
33699;DHT22;20032;52.436;13.312;2023-07-28T10:03:49;20.30;99.90
33699;DHT22;20032;52.436;13.312;2023-07-28T10:06:16;20.40;99.90
33699;DHT22;20032;52.436;13.312;2023-07-28T10:08:43;20.60;99.90
33699;DHT22;20032;52.436;13.312;2023-07-28T10:11:09;20.70;99.90
33699;DHT22;20032;52.436;13.312;2023-07-28T10:13:40;20.80;99.90
33699;DHT22;20032;52.436;13.312;2023-07-28T10:16:07;21.10;99.90
33699;DHT22;20032;52.436;13.312;2023-07-28T10:18:34;21.40;99.90
33699;DHT22;20032;52.436;13.312;2023-07-28T10:21:09;21.50;99.90
33699;DHT22;20032;52.436;13.312;2023-07-28T10:23:38;21.70;99.90
33699;DHT22;20032;52.436;13.312;2023-07-28T10:26:04;21.50;99.90
33699;DHT22;20032;52.436;13.312;2023-07-28T10:28:36;21.30;99.90
33699;DHT22;20032;52.436;13.312;2023-07-28T10:31:06;21.00;99.90
33699;DHT22;20032;52.436;13.312;2023-07-28T10:33:33;21.00;99.90
33699;DHT22;20032;52.436;13.312;2023-07-28T10:36:11;20.80;99.90
33699;DHT22;20032;52.436;13.312;2023-07-28T10:38:37;20.80;99.90
33699;DHT22;20032;52.436;13.312;2023-07-28T10:41:13;20.60;99.90
33699;DHT22;20032;52.436;13.312;2023-07-28T10:43:39;20.60;99.90
33699;DHT22;20032;52.436;13.312;2023-07-28T10:46:08;20.70;99.90
33699;DHT22;20032;52.436;13.312;2023-07-28T10:48:36;21.10;99.90
33699;DHT22;20032;52.436;13.312;2023-07-28T10:51:02;21.50;99.90
33699;DHT22;20032;52.436;13.312;2023-07-28T10:53:28;22.00;99.90
33699;DHT22;20032;52.436;13.312;2023-07-28T10:55:53;22.30;99.90
33699;DHT22;20032;52.436;13.312;2023-07-28T10:58:19;22.60;99.90
33699;DHT22;20032;52.436;13.312;2023-07-28T11:00:45;22.60;99.90
33699;DHT22;20032;52.436;13.312;2023-07-28T11:03:12;22.30;99.90
33699;DHT22;20032;52.436;13.312;2023-07-28T11:05:37;22.10;99.90
33699;DHT22;20032;52.436;13.312;2023-07-28T11:08:03;22.10;99.90
33699;DHT22;20032;52.436;13.312;2023-07-28T11:10:32;22.20;99.90
33699;DHT22;20032;52.436;13.312;2023-07-28T11:13:00;22.40;99.90
33699;DHT22;20032;52.436;13.312;2023-07-28T11:15:25;22.50;99.90
33699;DHT22;20032;52.436;13.312;2023-07-28T11:17:52;22.70;99.90
33699;DHT22;20032;52.436;13.312;2023-07-28T11:20:21;22.80;99.90
33699;DHT22;20032;52.436;13.312;2023-07-28T11:22:53;23.20;99.90
33699;DHT22;20032;52.436;13.312;2023-07-28T11:25:19;23.50;99.90
33699;DHT22;20032;52.436;13.312;2023-07-28T11:27:46;23.40;99.90
33699;DHT22;20032;52.436;13.312;2023-07-28T11:30:13;23.00;99.90
33699;DHT22;20032;52.436;13.312;2023-07-28T11:32:39;22.90;99.90
33699;DHT22;20032;52.436;13.312;2023-07-28T11:35:09;22.80;99.90
33699;DHT22;20032;52.436;13.312;2023-07-28T11:37:36;22.60;99.90
33699;DHT22;20032;52.436;13.312;2023-07-28T11:40:03;22.40;99.90
33699;DHT22;20032;52.436;13.312;2023-07-28T11:42:34;22.10;99.90
33699;DHT22;20032;52.436;13.312;2023-07-28T11:45:00;22.00;99.90
33699;DHT22;20032;52.436;13.312;2023-07-28T11:48:22;22.50;99.90
33699;DHT22;20032;52.436;13.312;2023-07-28T11:50:48;23.80;99.90
33699;DHT22;20032;52.436;13.312;2023-07-28T11:53:13;24.50;99.90
33699;DHT22;20032;52.436;13.312;2023-07-28T11:55:39;25.10;99.90
33699;DHT22;20032;52.436;13.312;2023-07-28T11:58:06;25.80;99.90
33699;DHT22;20032;52.436;13.312;2023-07-28T12:00:34;25.60;99.90
33699;DHT22;20032;52.436;13.312;2023-07-28T12:03:06;24.80;99.90
33699;DHT22;20032;52.436;13.312;2023-07-28T12:05:35;24.10;99.90
33699;DHT22;20032;52.436;13.312;2023-07-28T12:08:01;23.70;99.90
33699;DHT22;20032;52.436;13.312;2023-07-28T12:10:28;23.40;99.90
33699;DHT22;20032;52.436;13.312;2023-07-28T12:12:54;23.00;99.90
33699;DHT22;20032;52.436;13.312;2023-07-28T12:15:23;22.90;99.90
33699;DHT22;20032;52.436;13.312;2023-07-28T12:18:07;22.70;99.90
33699;DHT22;20032;52.436;13.312;2023-07-28T12:20:39;22.70;99.90
33699;DHT22;20032;52.436;13.312;2023-07-28T12:23:06;22.60;99.90
33699;DHT22;20032;52.436;13.312;2023-07-28T12:25:32;22.80;99.90
33699;DHT22;20032;52.436;13.312;2023-07-28T12:27:58;23.00;99.90
33699;DHT22;20032;52.436;13.312;2023-07-28T12:30:24;23.30;99.90
33699;DHT22;20032;52.436;13.312;2023-07-28T12:32:49;23.30;99.90
33699;DHT22;20032;52.436;13.312;2023-07-28T12:35:15;23.00;99.90
33699;DHT22;20032;52.436;13.312;2023-07-28T12:37:40;22.70;99.90
33699;DHT22;20032;52.436;13.312;2023-07-28T12:40:07;22.30;99.90
33699;DHT22;20032;52.436;13.312;2023-07-28T12:42:33;21.90;99.90
33699;DHT22;20032;52.436;13.312;2023-07-28T12:44:59;21.60;99.90
33699;DHT22;20032;52.436;13.312;2023-07-28T12:47:24;21.40;99.90
33699;DHT22;20032;52.436;13.312;2023-07-28T12:49:50;21.30;99.90
33699;DHT22;20032;52.436;13.312;2023-07-28T12:52:15;21.30;99.90
33699;DHT22;20032;52.436;13.312;2023-07-28T12:54:41;21.70;99.90
33699;DHT22;20032;52.436;13.312;2023-07-28T12:57:08;22.00;99.90
33699;DHT22;20032;52.436;13.312;2023-07-28T12:59:35;22.10;99.90
33699;DHT22;20032;52.436;13.312;2023-07-28T13:02:01;22.00;99.90
33699;DHT22;20032;52.436;13.312;2023-07-28T13:04:26;22.00;99.90
33699;DHT22;20032;52.436;13.312;2023-07-28T13:06:52;21.90;99.90
33699;DHT22;20032;52.436;13.312;2023-07-28T13:09:17;21.90;99.90
33699;DHT22;20032;52.436;13.312;2023-07-28T13:11:43;21.80;99.90
33699;DHT22;20032;52.436;13.312;2023-07-28T13:14:08;21.80;99.90
33699;DHT22;20032;52.436;13.312;2023-07-28T13:16:34;22.00;99.90
33699;DHT22;20032;52.436;13.312;2023-07-28T13:18:59;22.10;99.90
33699;DHT22;20032;52.436;13.312;2023-07-28T13:21:25;22.40;99.90
33699;DHT22;20032;52.436;13.312;2023-07-28T13:23:51;22.50;99.90
33699;DHT22;20032;52.436;13.312;2023-07-28T13:26:16;22.40;99.90
33699;DHT22;20032;52.436;13.312;2023-07-28T13:28:42;22.80;99.90
33699;DHT22;20032;52.436;13.312;2023-07-28T13:31:12;22.90;99.90
33699;DHT22;20032;52.436;13.312;2023-07-28T13:33:38;22.80;99.90
33699;DHT22;20032;52.436;13.312;2023-07-28T13:36:04;22.50;99.90
33699;DHT22;20032;52.436;13.312;2023-07-28T13:38:32;22.40;99.90
33699;DHT22;20032;52.436;13.312;2023-07-28T13:40:58;22.40;99.90
33699;DHT22;20032;52.436;13.312;2023-07-28T13:43:23;22.20;99.90
33699;DHT22;20032;52.436;13.312;2023-07-28T13:45:49;22.00;99.90
33699;DHT22;20032;52.436;13.312;2023-07-28T13:48:14;21.90;99.90
33699;DHT22;20032;52.436;13.312;2023-07-28T13:50:39;21.80;99.90
33699;DHT22;20032;52.436;13.312;2023-07-28T13:53:05;21.70;99.90
33699;DHT22;20032;52.436;13.312;2023-07-28T13:55:30;21.60;99.90
33699;DHT22;20032;52.436;13.312;2023-07-28T13:57:56;21.60;99.90
33699;DHT22;20032;52.436;13.312;2023-07-28T14:00:21;21.60;99.90
33699;DHT22;20032;52.436;13.312;2023-07-28T14:02:47;21.60;99.90
33699;DHT22;20032;52.436;13.312;2023-07-28T14:05:13;21.60;99.90
33699;DHT22;20032;52.436;13.312;2023-07-28T14:07:38;21.60;99.90
33699;DHT22;20032;52.436;13.312;2023-07-28T14:10:04;21.70;99.90
33699;DHT22;20032;52.436;13.312;2023-07-28T14:12:29;21.90;99.90
33699;DHT22;20032;52.436;13.312;2023-07-28T14:14:55;22.80;99.90
33699;DHT22;20032;52.436;13.312;2023-07-28T14:17:20;24.30;99.90
33699;DHT22;20032;52.436;13.312;2023-07-28T14:19:46;25.50;99.90
33699;DHT22;20032;52.436;13.312;2023-07-28T14:22:11;27.00;99.90
33699;DHT22;20032;52.436;13.312;2023-07-28T14:24:37;27.80;99.90
33699;DHT22;20032;52.436;13.312;2023-07-28T14:27:03;27.80;99.90
33699;DHT22;20032;52.436;13.312;2023-07-28T14:29:28;28.00;99.90
33699;DHT22;20032;52.436;13.312;2023-07-28T14:31:54;28.20;99.90
33699;DHT22;20032;52.436;13.312;2023-07-28T14:34:19;28.10;99.90
33699;DHT22;20032;52.436;13.312;2023-07-28T14:36:45;27.30;99.90
33699;DHT22;20032;52.436;13.312;2023-07-28T14:39:11;26.60;99.90
33699;DHT22;20032;52.436;13.312;2023-07-28T14:41:37;25.90;99.90
33699;DHT22;20032;52.436;13.312;2023-07-28T14:44:02;25.30;99.90
33699;DHT22;20032;52.436;13.312;2023-07-28T14:46:28;24.90;99.90
33699;DHT22;20032;52.436;13.312;2023-07-28T14:48:54;24.90;99.90
33699;DHT22;20032;52.436;13.312;2023-07-28T14:51:20;24.70;99.90
33699;DHT22;20032;52.436;13.312;2023-07-28T14:53:46;24.50;99.90
33699;DHT22;20032;52.436;13.312;2023-07-28T14:56:13;24.40;99.90
33699;DHT22;20032;52.436;13.312;2023-07-28T14:58:38;24.20;99.90
33699;DHT22;20032;52.436;13.312;2023-07-28T15:01:07;24.10;99.90
33699;DHT22;20032;52.436;13.312;2023-07-28T15:03:33;23.80;99.90
33699;DHT22;20032;52.436;13.312;2023-07-28T15:06:00;23.60;99.90
33699;DHT22;20032;52.436;13.312;2023-07-28T15:08:26;23.60;99.90
33699;DHT22;20032;52.436;13.312;2023-07-28T15:10:52;24.30;99.90